sensor_id;sensor_type;location;lat;lon;timestamp;P1;durP1;ratioP1;P2;durP2;ratioP2
11042;SDS011;5574;48.786;10.120;2024-01-11T00:00:47;28.63;;;18.17;;
11042;SDS011;5574;48.786;10.120;2024-01-11T00:03:15;27.73;;;17.23;;
11042;SDS011;5574;48.786;10.120;2024-01-11T00:05:42;27.43;;;16.93;;
11042;SDS011;5574;48.786;10.120;2024-01-11T00:08:10;25.77;;;17.03;;
11042;SDS011;5574;48.786;10.120;2024-01-11T00:10:37;25.07;;;16.67;;
11042;SDS011;5574;48.786;10.120;2024-01-11T00:13:03;24.50;;;16.37;;
11042;SDS011;5574;48.786;10.120;2024-01-11T00:15:30;25.23;;;17.03;;
11042;SDS011;5574;48.786;10.120;2024-01-11T00:17:57;26.97;;;15.73;;
11042;SDS011;5574;48.786;10.120;2024-01-11T00:20:25;26.30;;;17.07;;
11042;SDS011;5574;48.786;10.120;2024-01-11T00:22:52;26.53;;;16.27;;
11042;SDS011;5574;48.786;10.120;2024-01-11T00:25:18;22.77;;;15.90;;
11042;SDS011;5574;48.786;10.120;2024-01-11T00:27:45;23.87;;;15.77;;
11042;SDS011;5574;48.786;10.120;2024-01-11T00:30:12;25.50;;;16.53;;
11042;SDS011;5574;48.786;10.120;2024-01-11T00:32:38;30.07;;;17.90;;
11042;SDS011;5574;48.786;10.120;2024-01-11T00:35:05;26.67;;;17.20;;
11042;SDS011;5574;48.786;10.120;2024-01-11T00:37:34;32.37;;;17.83;;
11042;SDS011;5574;48.786;10.120;2024-01-11T00:40:00;29.47;;;18.00;;
11042;SDS011;5574;48.786;10.120;2024-01-11T00:42:27;27.20;;;16.93;;
11042;SDS011;5574;48.786;10.120;2024-01-11T00:44:54;27.00;;;17.17;;
11042;SDS011;5574;48.786;10.120;2024-01-11T00:47:20;26.37;;;16.60;;
11042;SDS011;5574;48.786;10.120;2024-01-11T00:49:47;24.30;;;15.80;;
11042;SDS011;5574;48.786;10.120;2024-01-11T00:52:14;25.37;;;16.43;;
11042;SDS011;5574;48.786;10.120;2024-01-11T00:54:42;24.43;;;15.83;;
11042;SDS011;5574;48.786;10.120;2024-01-11T00:57:08;22.07;;;15.77;;
11042;SDS011;5574;48.786;10.120;2024-01-11T00:59:35;21.03;;;15.37;;
11042;SDS011;5574;48.786;10.120;2024-01-11T01:02:02;22.43;;;15.80;;
11042;SDS011;5574;48.786;10.120;2024-01-11T01:04:29;22.37;;;14.83;;
11042;SDS011;5574;48.786;10.120;2024-01-11T01:06:56;23.67;;;14.77;;
11042;SDS011;5574;48.786;10.120;2024-01-11T01:09:23;20.30;;;14.37;;
11042;SDS011;5574;48.786;10.120;2024-01-11T01:11:51;24.80;;;15.43;;
11042;SDS011;5574;48.786;10.120;2024-01-11T01:14:18;22.90;;;15.30;;
11042;SDS011;5574;48.786;10.120;2024-01-11T01:16:44;23.07;;;15.07;;
11042;SDS011;5574;48.786;10.120;2024-01-11T01:19:11;23.47;;;14.73;;
11042;SDS011;5574;48.786;10.120;2024-01-11T01:21:38;24.13;;;14.87;;
11042;SDS011;5574;48.786;10.120;2024-01-11T01:24:04;20.60;;;13.80;;
11042;SDS011;5574;48.786;10.120;2024-01-11T01:26:31;21.23;;;14.80;;
11042;SDS011;5574;48.786;10.120;2024-01-11T01:28:59;21.13;;;14.43;;
11042;SDS011;5574;48.786;10.120;2024-01-11T01:31:27;21.53;;;14.53;;
11042;SDS011;5574;48.786;10.120;2024-01-11T01:33:53;20.83;;;14.20;;
11042;SDS011;5574;48.786;10.120;2024-01-11T01:36:20;21.70;;;15.07;;
11042;SDS011;5574;48.786;10.120;2024-01-11T01:38:46;22.30;;;15.33;;
11042;SDS011;5574;48.786;10.120;2024-01-11T01:41:13;20.77;;;14.43;;
11042;SDS011;5574;48.786;10.120;2024-01-11T01:43:40;21.73;;;13.77;;
11042;SDS011;5574;48.786;10.120;2024-01-11T01:46:08;22.43;;;14.70;;
11042;SDS011;5574;48.786;10.120;2024-01-11T01:48:35;21.13;;;14.17;;
11042;SDS011;5574;48.786;10.120;2024-01-11T01:51:02;21.13;;;14.03;;
11042;SDS011;5574;48.786;10.120;2024-01-11T01:53:29;22.10;;;15.40;;
11042;SDS011;5574;48.786;10.120;2024-01-11T01:55:56;24.03;;;15.47;;
11042;SDS011;5574;48.786;10.120;2024-01-11T01:58:23;21.73;;;14.97;;
11042;SDS011;5574;48.786;10.120;2024-01-11T02:00:50;25.13;;;16.13;;
11042;SDS011;5574;48.786;10.120;2024-01-11T02:03:19;23.07;;;15.87;;
11042;SDS011;5574;48.786;10.120;2024-01-11T02:05:46;22.63;;;15.20;;
11042;SDS011;5574;48.786;10.120;2024-01-11T02:08:15;20.17;;;14.73;;
11042;SDS011;5574;48.786;10.120;2024-01-11T02:10:43;22.37;;;15.07;;
11042;SDS011;5574;48.786;10.120;2024-01-11T02:13:11;20.53;;;14.20;;
11042;SDS011;5574;48.786;10.120;2024-01-11T02:15:38;22.30;;;14.90;;
11042;SDS011;5574;48.786;10.120;2024-01-11T02:18:04;20.50;;;13.93;;
11042;SDS011;5574;48.786;10.120;2024-01-11T02:20:32;20.47;;;13.93;;
11042;SDS011;5574;48.786;10.120;2024-01-11T02:23:01;21.90;;;13.90;;
11042;SDS011;5574;48.786;10.120;2024-01-11T02:25:32;21.83;;;15.73;;
11042;SDS011;5574;48.786;10.120;2024-01-11T02:27:59;22.53;;;15.80;;
11042;SDS011;5574;48.786;10.120;2024-01-11T02:30:25;24.97;;;16.57;;
11042;SDS011;5574;48.786;10.120;2024-01-11T02:32:53;24.53;;;16.43;;
11042;SDS011;5574;48.786;10.120;2024-01-11T02:35:20;24.00;;;15.87;;
11042;SDS011;5574;48.786;10.120;2024-01-11T02:37:47;23.07;;;15.27;;
11042;SDS011;5574;48.786;10.120;2024-01-11T02:40:14;23.97;;;16.40;;
11042;SDS011;5574;48.786;10.120;2024-01-11T02:42:42;21.93;;;15.37;;
11042;SDS011;5574;48.786;10.120;2024-01-11T02:45:10;22.93;;;15.73;;
11042;SDS011;5574;48.786;10.120;2024-01-11T02:47:37;26.40;;;16.20;;
11042;SDS011;5574;48.786;10.120;2024-01-11T02:50:04;21.53;;;15.20;;
11042;SDS011;5574;48.786;10.120;2024-01-11T02:52:32;22.77;;;15.07;;
11042;SDS011;5574;48.786;10.120;2024-01-11T02:54:58;23.13;;;14.70;;
11042;SDS011;5574;48.786;10.120;2024-01-11T02:57:25;19.97;;;14.77;;
11042;SDS011;5574;48.786;10.120;2024-01-11T02:59:53;21.57;;;14.90;;
11042;SDS011;5574;48.786;10.120;2024-01-11T03:02:20;22.77;;;15.10;;
11042;SDS011;5574;48.786;10.120;2024-01-11T03:04:47;20.07;;;14.43;;
11042;SDS011;5574;48.786;10.120;2024-01-11T03:07:13;20.97;;;14.60;;
11042;SDS011;5574;48.786;10.120;2024-01-11T03:09:40;21.43;;;14.47;;
11042;SDS011;5574;48.786;10.120;2024-01-11T03:12:07;22.50;;;14.27;;
11042;SDS011;5574;48.786;10.120;2024-01-11T03:14:33;20.70;;;15.17;;
11042;SDS011;5574;48.786;10.120;2024-01-11T03:17:01;22.47;;;14.37;;
11042;SDS011;5574;48.786;10.120;2024-01-11T03:19:28;20.87;;;15.10;;
11042;SDS011;5574;48.786;10.120;2024-01-11T03:21:55;21.20;;;14.67;;
11042;SDS011;5574;48.786;10.120;2024-01-11T03:24:22;25.43;;;16.17;;
11042;SDS011;5574;48.786;10.120;2024-01-11T03:26:49;21.00;;;14.60;;
11042;SDS011;5574;48.786;10.120;2024-01-11T03:29:15;22.73;;;15.33;;
11042;SDS011;5574;48.786;10.120;2024-01-11T03:31:42;23.33;;;14.70;;
11042;SDS011;5574;48.786;10.120;2024-01-11T03:34:11;22.00;;;15.33;;
11042;SDS011;5574;48.786;10.120;2024-01-11T03:36:38;22.00;;;14.27;;
11042;SDS011;5574;48.786;10.120;2024-01-11T03:39:05;22.83;;;14.97;;
11042;SDS011;5574;48.786;10.120;2024-01-11T03:41:32;22.80;;;14.70;;
11042;SDS011;5574;48.786;10.120;2024-01-11T03:43:58;23.93;;;14.90;;
11042;SDS011;5574;48.786;10.120;2024-01-11T03:46:25;19.40;;;14.63;;
11042;SDS011;5574;48.786;10.120;2024-01-11T03:48:52;22.10;;;15.77;;
11042;SDS011;5574;48.786;10.120;2024-01-11T03:51:22;21.43;;;15.97;;
11042;SDS011;5574;48.786;10.120;2024-01-11T03:53:48;23.20;;;16.10;;
11042;SDS011;5574;48.786;10.120;2024-01-11T03:56:15;22.13;;;15.10;;
11042;SDS011;5574;48.786;10.120;2024-01-11T03:58:41;20.83;;;15.67;;
11042;SDS011;5574;48.786;10.120;2024-01-11T04:01:09;23.17;;;16.10;;
11042;SDS011;5574;48.786;10.120;2024-01-11T04:03:36;22.27;;;15.63;;
11042;SDS011;5574;48.786;10.120;2024-01-11T04:06:03;19.93;;;14.47;;
11042;SDS011;5574;48.786;10.120;2024-01-11T04:08:32;23.77;;;15.00;;
11042;SDS011;5574;48.786;10.120;2024-01-11T04:11:01;22.10;;;15.23;;
11042;SDS011;5574;48.786;10.120;2024-01-11T04:13:28;21.50;;;15.73;;
11042;SDS011;5574;48.786;10.120;2024-01-11T04:15:54;21.20;;;14.63;;
11042;SDS011;5574;48.786;10.120;2024-01-11T04:18:21;21.10;;;15.80;;
11042;SDS011;5574;48.786;10.120;2024-01-11T04:20:49;24.57;;;16.77;;
11042;SDS011;5574;48.786;10.120;2024-01-11T04:23:15;21.83;;;15.43;;
11042;SDS011;5574;48.786;10.120;2024-01-11T04:25:43;24.57;;;16.90;;
11042;SDS011;5574;48.786;10.120;2024-01-11T04:28:10;23.07;;;16.67;;
11042;SDS011;5574;48.786;10.120;2024-01-11T04:30:37;25.90;;;17.50;;
11042;SDS011;5574;48.786;10.120;2024-01-11T04:33:03;26.67;;;16.87;;
11042;SDS011;5574;48.786;10.120;2024-01-11T04:35:30;24.67;;;16.33;;
11042;SDS011;5574;48.786;10.120;2024-01-11T04:37:57;23.00;;;15.57;;
11042;SDS011;5574;48.786;10.120;2024-01-11T04:40:23;21.53;;;15.77;;
11042;SDS011;5574;48.786;10.120;2024-01-11T04:42:51;27.30;;;16.80;;
11042;SDS011;5574;48.786;10.120;2024-01-11T04:45:18;25.50;;;16.03;;
11042;SDS011;5574;48.786;10.120;2024-01-11T04:47:45;24.43;;;15.97;;
11042;SDS011;5574;48.786;10.120;2024-01-11T04:50:11;24.17;;;16.43;;
11042;SDS011;5574;48.786;10.120;2024-01-11T04:52:38;25.80;;;16.93;;
11042;SDS011;5574;48.786;10.120;2024-01-11T04:55:05;23.47;;;16.13;;
11042;SDS011;5574;48.786;10.120;2024-01-11T04:57:31;23.17;;;16.70;;
11042;SDS011;5574;48.786;10.120;2024-01-11T04:59:59;22.70;;;15.63;;
11042;SDS011;5574;48.786;10.120;2024-01-11T05:02:26;24.30;;;16.87;;
11042;SDS011;5574;48.786;10.120;2024-01-11T05:04:53;24.53;;;16.70;;
11042;SDS011;5574;48.786;10.120;2024-01-11T05:07:19;23.47;;;17.00;;
11042;SDS011;5574;48.786;10.120;2024-01-11T05:09:46;27.53;;;18.37;;
11042;SDS011;5574;48.786;10.120;2024-01-11T05:12:13;25.63;;;17.17;;
11042;SDS011;5574;48.786;10.120;2024-01-11T05:14:39;22.43;;;15.83;;
11042;SDS011;5574;48.786;10.120;2024-01-11T05:17:08;28.87;;;18.57;;
11042;SDS011;5574;48.786;10.120;2024-01-11T05:19:34;25.27;;;17.20;;
11042;SDS011;5574;48.786;10.120;2024-01-11T05:22:01;23.90;;;17.47;;
11042;SDS011;5574;48.786;10.120;2024-01-11T05:24:27;26.33;;;17.47;;
11042;SDS011;5574;48.786;10.120;2024-01-11T05:26:54;26.80;;;17.47;;
11042;SDS011;5574;48.786;10.120;2024-01-11T05:29:21;27.07;;;17.47;;
11042;SDS011;5574;48.786;10.120;2024-01-11T05:31:47;24.90;;;16.67;;
11042;SDS011;5574;48.786;10.120;2024-01-11T05:34:15;23.07;;;16.57;;
11042;SDS011;5574;48.786;10.120;2024-01-11T05:36:42;25.97;;;16.23;;
11042;SDS011;5574;48.786;10.120;2024-01-11T05:39:09;23.63;;;16.40;;
11042;SDS011;5574;48.786;10.120;2024-01-11T05:41:35;22.67;;;15.80;;
11042;SDS011;5574;48.786;10.120;2024-01-11T05:44:02;23.80;;;16.27;;
11042;SDS011;5574;48.786;10.120;2024-01-11T05:46:29;22.87;;;15.90;;
11042;SDS011;5574;48.786;10.120;2024-01-11T05:48:56;26.27;;;16.27;;
11042;SDS011;5574;48.786;10.120;2024-01-11T05:51:24;24.87;;;16.93;;
11042;SDS011;5574;48.786;10.120;2024-01-11T05:53:52;24.73;;;16.43;;
11042;SDS011;5574;48.786;10.120;2024-01-11T05:56:18;24.53;;;17.37;;
11042;SDS011;5574;48.786;10.120;2024-01-11T05:58:45;24.70;;;17.97;;
11042;SDS011;5574;48.786;10.120;2024-01-11T06:01:12;24.87;;;17.03;;
11042;SDS011;5574;48.786;10.120;2024-01-11T06:03:39;30.67;;;19.83;;
11042;SDS011;5574;48.786;10.120;2024-01-11T06:06:06;30.33;;;20.50;;
11042;SDS011;5574;48.786;10.120;2024-01-11T06:08:34;29.73;;;19.20;;
11042;SDS011;5574;48.786;10.120;2024-01-11T06:11:01;27.07;;;17.87;;
11042;SDS011;5574;48.786;10.120;2024-01-11T06:13:29;29.13;;;19.70;;
11042;SDS011;5574;48.786;10.120;2024-01-11T06:15:55;26.57;;;18.13;;
11042;SDS011;5574;48.786;10.120;2024-01-11T06:18:22;30.43;;;20.47;;
11042;SDS011;5574;48.786;10.120;2024-01-11T06:20:48;30.90;;;21.40;;
11042;SDS011;5574;48.786;10.120;2024-01-11T06:23:15;25.53;;;18.27;;
11042;SDS011;5574;48.786;10.120;2024-01-11T06:25:44;26.37;;;17.23;;
11042;SDS011;5574;48.786;10.120;2024-01-11T06:28:12;30.53;;;19.20;;
11042;SDS011;5574;48.786;10.120;2024-01-11T06:30:38;36.20;;;23.40;;
11042;SDS011;5574;48.786;10.120;2024-01-11T06:33:05;26.73;;;19.10;;
11042;SDS011;5574;48.786;10.120;2024-01-11T06:35:32;28.87;;;20.47;;
11042;SDS011;5574;48.786;10.120;2024-01-11T06:37:58;26.07;;;18.40;;
11042;SDS011;5574;48.786;10.120;2024-01-11T06:40:25;29.37;;;18.03;;
11042;SDS011;5574;48.786;10.120;2024-01-11T06:42:53;25.27;;;17.37;;
11042;SDS011;5574;48.786;10.120;2024-01-11T06:45:20;29.77;;;18.77;;
11042;SDS011;5574;48.786;10.120;2024-01-11T06:47:47;26.47;;;17.63;;
11042;SDS011;5574;48.786;10.120;2024-01-11T06:50:14;26.37;;;18.17;;
11042;SDS011;5574;48.786;10.120;2024-01-11T06:52:41;24.50;;;17.30;;
11042;SDS011;5574;48.786;10.120;2024-01-11T06:55:08;34.03;;;21.10;;
11042;SDS011;5574;48.786;10.120;2024-01-11T06:57:35;28.73;;;18.47;;
11042;SDS011;5574;48.786;10.120;2024-01-11T07:00:04;24.80;;;16.17;;
11042;SDS011;5574;48.786;10.120;2024-01-11T07:02:32;23.67;;;15.37;;
11042;SDS011;5574;48.786;10.120;2024-01-11T07:04:59;23.33;;;15.00;;
11042;SDS011;5574;48.786;10.120;2024-01-11T07:07:25;25.17;;;15.57;;
11042;SDS011;5574;48.786;10.120;2024-01-11T07:09:52;25.63;;;17.13;;
11042;SDS011;5574;48.786;10.120;2024-01-11T07:12:20;21.67;;;16.03;;
11042;SDS011;5574;48.786;10.120;2024-01-11T07:14:47;28.50;;;15.60;;
11042;SDS011;5574;48.786;10.120;2024-01-11T07:17:15;24.87;;;16.03;;
11042;SDS011;5574;48.786;10.120;2024-01-11T07:19:41;21.93;;;16.17;;
11042;SDS011;5574;48.786;10.120;2024-01-11T07:22:08;23.87;;;16.73;;
11042;SDS011;5574;48.786;10.120;2024-01-11T07:24:35;24.07;;;16.83;;
11042;SDS011;5574;48.786;10.120;2024-01-11T07:27:02;23.33;;;16.73;;
11042;SDS011;5574;48.786;10.120;2024-01-11T07:29:29;22.67;;;16.00;;
11042;SDS011;5574;48.786;10.120;2024-01-11T07:31:56;22.17;;;15.60;;
11042;SDS011;5574;48.786;10.120;2024-01-11T07:34:24;21.00;;;14.83;;
11042;SDS011;5574;48.786;10.120;2024-01-11T07:36:51;22.83;;;15.77;;
11042;SDS011;5574;48.786;10.120;2024-01-11T07:39:18;22.53;;;15.50;;
11042;SDS011;5574;48.786;10.120;2024-01-11T07:41:45;27.13;;;17.00;;
11042;SDS011;5574;48.786;10.120;2024-01-11T07:44:11;23.93;;;16.50;;
11042;SDS011;5574;48.786;10.120;2024-01-11T07:46:38;27.83;;;16.07;;
11042;SDS011;5574;48.786;10.120;2024-01-11T07:49:05;24.20;;;16.67;;
11042;SDS011;5574;48.786;10.120;2024-01-11T07:51:34;25.10;;;16.27;;
11042;SDS011;5574;48.786;10.120;2024-01-11T07:54:00;22.00;;;15.47;;
11042;SDS011;5574;48.786;10.120;2024-01-11T07:56:27;23.40;;;15.93;;
11042;SDS011;5574;48.786;10.120;2024-01-11T07:58:55;25.77;;;15.83;;
11042;SDS011;5574;48.786;10.120;2024-01-11T08:01:21;25.17;;;16.50;;
11042;SDS011;5574;48.786;10.120;2024-01-11T08:03:48;22.93;;;15.70;;
11042;SDS011;5574;48.786;10.120;2024-01-11T08:06:17;21.90;;;15.43;;
11042;SDS011;5574;48.786;10.120;2024-01-11T08:08:45;20.93;;;15.17;;
11042;SDS011;5574;48.786;10.120;2024-01-11T08:11:16;23.03;;;15.97;;
11042;SDS011;5574;48.786;10.120;2024-01-11T08:13:43;23.17;;;16.20;;
11042;SDS011;5574;48.786;10.120;2024-01-11T08:16:14;24.77;;;16.40;;
11042;SDS011;5574;48.786;10.120;2024-01-11T08:18:41;39.17;;;25.37;;
11042;SDS011;5574;48.786;10.120;2024-01-11T08:21:08;29.40;;;19.60;;
11042;SDS011;5574;48.786;10.120;2024-01-11T08:23:35;22.83;;;16.70;;
11042;SDS011;5574;48.786;10.120;2024-01-11T08:26:05;26.03;;;17.53;;
11042;SDS011;5574;48.786;10.120;2024-01-11T08:28:33;28.27;;;18.60;;
11042;SDS011;5574;48.786;10.120;2024-01-11T08:31:00;25.47;;;17.67;;
11042;SDS011;5574;48.786;10.120;2024-01-11T08:33:29;26.30;;;16.47;;
11042;SDS011;5574;48.786;10.120;2024-01-11T08:35:56;24.40;;;17.03;;
11042;SDS011;5574;48.786;10.120;2024-01-11T08:38:23;24.53;;;18.10;;
11042;SDS011;5574;48.786;10.120;2024-01-11T08:40:50;27.07;;;17.87;;
11042;SDS011;5574;48.786;10.120;2024-01-11T08:43:18;24.17;;;17.10;;
11042;SDS011;5574;48.786;10.120;2024-01-11T08:45:44;23.37;;;17.03;;
11042;SDS011;5574;48.786;10.120;2024-01-11T08:48:11;30.30;;;18.07;;
11042;SDS011;5574;48.786;10.120;2024-01-11T08:50:38;22.53;;;16.63;;
11042;SDS011;5574;48.786;10.120;2024-01-11T08:53:05;24.53;;;16.80;;
11042;SDS011;5574;48.786;10.120;2024-01-11T08:55:31;25.20;;;18.03;;
11042;SDS011;5574;48.786;10.120;2024-01-11T08:57:58;24.03;;;17.33;;
11042;SDS011;5574;48.786;10.120;2024-01-11T09:00:27;24.07;;;17.67;;
11042;SDS011;5574;48.786;10.120;2024-01-11T09:02:54;25.53;;;17.70;;
11042;SDS011;5574;48.786;10.120;2024-01-11T09:05:20;24.23;;;18.27;;
11042;SDS011;5574;48.786;10.120;2024-01-11T09:07:47;24.57;;;17.20;;
11042;SDS011;5574;48.786;10.120;2024-01-11T09:10:14;24.13;;;18.07;;
11042;SDS011;5574;48.786;10.120;2024-01-11T09:12:41;25.50;;;19.17;;
11042;SDS011;5574;48.786;10.120;2024-01-11T09:15:08;25.30;;;18.10;;
11042;SDS011;5574;48.786;10.120;2024-01-11T09:17:36;27.40;;;18.10;;
11042;SDS011;5574;48.786;10.120;2024-01-11T09:20:04;22.37;;;16.87;;
11042;SDS011;5574;48.786;10.120;2024-01-11T09:22:31;27.07;;;17.40;;
11042;SDS011;5574;48.786;10.120;2024-01-11T09:24:57;24.97;;;18.03;;
11042;SDS011;5574;48.786;10.120;2024-01-11T09:27:24;25.03;;;18.43;;
11042;SDS011;5574;48.786;10.120;2024-01-11T09:29:51;25.57;;;18.20;;
11042;SDS011;5574;48.786;10.120;2024-01-11T09:32:17;24.70;;;18.13;;
11042;SDS011;5574;48.786;10.120;2024-01-11T09:34:46;25.77;;;18.33;;
11042;SDS011;5574;48.786;10.120;2024-01-11T09:37:13;24.33;;;18.30;;
11042;SDS011;5574;48.786;10.120;2024-01-11T09:39:39;25.50;;;19.10;;
11042;SDS011;5574;48.786;10.120;2024-01-11T09:42:08;24.63;;;18.73;;
11042;SDS011;5574;48.786;10.120;2024-01-11T09:44:35;26.77;;;18.57;;
11042;SDS011;5574;48.786;10.120;2024-01-11T09:47:03;27.80;;;20.00;;
11042;SDS011;5574;48.786;10.120;2024-01-11T09:49:31;26.53;;;20.13;;
11042;SDS011;5574;48.786;10.120;2024-01-11T09:52:01;27.00;;;18.87;;
11042;SDS011;5574;48.786;10.120;2024-01-11T09:54:29;26.37;;;18.93;;
11042;SDS011;5574;48.786;10.120;2024-01-11T09:56:56;24.50;;;17.90;;
11042;SDS011;5574;48.786;10.120;2024-01-11T09:59:26;23.57;;;18.10;;
11042;SDS011;5574;48.786;10.120;2024-01-11T10:01:53;25.77;;;19.93;;
11042;SDS011;5574;48.786;10.120;2024-01-11T10:04:19;25.53;;;18.30;;
11042;SDS011;5574;48.786;10.120;2024-01-11T10:06:46;22.93;;;18.27;;
11042;SDS011;5574;48.786;10.120;2024-01-11T10:09:17;25.10;;;17.97;;
11042;SDS011;5574;48.786;10.120;2024-01-11T10:11:44;24.70;;;17.90;;
11042;SDS011;5574;48.786;10.120;2024-01-11T10:14:11;22.87;;;16.93;;
11042;SDS011;5574;48.786;10.120;2024-01-11T10:16:38;22.17;;;17.20;;
11042;SDS011;5574;48.786;10.120;2024-01-11T10:19:07;23.97;;;18.00;;
11042;SDS011;5574;48.786;10.120;2024-01-11T10:21:35;23.37;;;17.70;;
11042;SDS011;5574;48.786;10.120;2024-01-11T10:24:05;21.63;;;17.13;;
11042;SDS011;5574;48.786;10.120;2024-01-11T10:26:33;27.93;;;19.30;;
11042;SDS011;5574;48.786;10.120;2024-01-11T10:29:00;26.10;;;18.77;;
11042;SDS011;5574;48.786;10.120;2024-01-11T10:31:28;23.40;;;18.43;;
11042;SDS011;5574;48.786;10.120;2024-01-11T10:33:55;25.33;;;19.20;;
11042;SDS011;5574;48.786;10.120;2024-01-11T10:36:21;26.63;;;19.60;;
11042;SDS011;5574;48.786;10.120;2024-01-11T10:38:48;31.43;;;20.67;;
11042;SDS011;5574;48.786;10.120;2024-01-11T10:41:17;29.63;;;20.53;;
11042;SDS011;5574;48.786;10.120;2024-01-11T10:43:48;27.30;;;19.07;;
11042;SDS011;5574;48.786;10.120;2024-01-11T10:46:14;24.23;;;19.07;;
11042;SDS011;5574;48.786;10.120;2024-01-11T10:48:47;24.20;;;18.40;;
11042;SDS011;5574;48.786;10.120;2024-01-11T10:51:17;25.33;;;19.43;;
11042;SDS011;5574;48.786;10.120;2024-01-11T10:53:47;25.50;;;20.07;;
11042;SDS011;5574;48.786;10.120;2024-01-11T10:56:16;28.67;;;20.77;;
11042;SDS011;5574;48.786;10.120;2024-01-11T10:58:44;26.13;;;19.77;;
11042;SDS011;5574;48.786;10.120;2024-01-11T11:01:12;28.20;;;20.37;;
11042;SDS011;5574;48.786;10.120;2024-01-11T11:03:39;27.73;;;19.20;;
11042;SDS011;5574;48.786;10.120;2024-01-11T11:06:07;26.73;;;18.57;;
11042;SDS011;5574;48.786;10.120;2024-01-11T11:08:36;24.53;;;18.87;;
11042;SDS011;5574;48.786;10.120;2024-01-11T11:11:03;25.07;;;18.43;;
11042;SDS011;5574;48.786;10.120;2024-01-11T11:13:31;26.87;;;18.57;;
11042;SDS011;5574;48.786;10.120;2024-01-11T11:15:59;25.30;;;18.90;;
11042;SDS011;5574;48.786;10.120;2024-01-11T11:18:30;27.07;;;19.83;;
11042;SDS011;5574;48.786;10.120;2024-01-11T11:20:57;25.27;;;19.13;;
11042;SDS011;5574;48.786;10.120;2024-01-11T11:23:24;26.70;;;18.93;;
11042;SDS011;5574;48.786;10.120;2024-01-11T11:25:51;25.00;;;19.13;;
11042;SDS011;5574;48.786;10.120;2024-01-11T11:28:21;23.13;;;17.80;;
11042;SDS011;5574;48.786;10.120;2024-01-11T11:30:49;23.60;;;17.03;;
11042;SDS011;5574;48.786;10.120;2024-01-11T11:33:17;22.57;;;17.40;;
11042;SDS011;5574;48.786;10.120;2024-01-11T11:35:46;22.60;;;16.83;;
11042;SDS011;5574;48.786;10.120;2024-01-11T11:38:16;24.13;;;17.73;;
11042;SDS011;5574;48.786;10.120;2024-01-11T11:40:43;21.30;;;17.07;;
11042;SDS011;5574;48.786;10.120;2024-01-11T11:43:13;24.43;;;18.00;;
11042;SDS011;5574;48.786;10.120;2024-01-11T11:45:42;21.83;;;17.37;;
11042;SDS011;5574;48.786;10.120;2024-01-11T11:51:14;21.67;;;16.40;;
11042;SDS011;5574;48.786;10.120;2024-01-11T11:53:41;20.90;;;15.73;;
11042;SDS011;5574;48.786;10.120;2024-01-11T11:56:09;28.80;;;17.73;;
11042;SDS011;5574;48.786;10.120;2024-01-11T11:58:37;24.00;;;17.63;;
11042;SDS011;5574;48.786;10.120;2024-01-11T12:01:05;21.27;;;17.03;;
11042;SDS011;5574;48.786;10.120;2024-01-11T12:03:32;21.83;;;16.97;;
11042;SDS011;5574;48.786;10.120;2024-01-11T12:06:01;24.77;;;17.50;;
11042;SDS011;5574;48.786;10.120;2024-01-11T12:08:29;21.03;;;16.20;;
11042;SDS011;5574;48.786;10.120;2024-01-11T12:10:56;24.80;;;18.10;;
11042;SDS011;5574;48.786;10.120;2024-01-11T12:13:23;21.77;;;17.10;;
11042;SDS011;5574;48.786;10.120;2024-01-11T12:15:50;23.67;;;17.70;;
11042;SDS011;5574;48.786;10.120;2024-01-11T12:18:17;23.97;;;18.27;;
11042;SDS011;5574;48.786;10.120;2024-01-11T12:20:44;25.13;;;18.33;;
11042;SDS011;5574;48.786;10.120;2024-01-11T12:23:11;23.20;;;17.83;;
11042;SDS011;5574;48.786;10.120;2024-01-11T12:25:40;22.87;;;16.93;;
11042;SDS011;5574;48.786;10.120;2024-01-11T12:28:07;25.60;;;17.57;;
11042;SDS011;5574;48.786;10.120;2024-01-11T12:30:34;27.13;;;20.10;;
11042;SDS011;5574;48.786;10.120;2024-01-11T12:33:00;24.07;;;17.73;;
11042;SDS011;5574;48.786;10.120;2024-01-11T12:35:29;23.07;;;17.77;;
11042;SDS011;5574;48.786;10.120;2024-01-11T12:37:58;23.83;;;17.40;;
11042;SDS011;5574;48.786;10.120;2024-01-11T12:40:25;23.13;;;17.83;;
11042;SDS011;5574;48.786;10.120;2024-01-11T12:42:54;23.60;;;16.93;;
11042;SDS011;5574;48.786;10.120;2024-01-11T12:45:23;23.50;;;17.30;;
11042;SDS011;5574;48.786;10.120;2024-01-11T12:47:51;27.60;;;20.67;;
11042;SDS011;5574;48.786;10.120;2024-01-11T12:50:19;28.60;;;20.60;;
11042;SDS011;5574;48.786;10.120;2024-01-11T12:52:47;28.80;;;20.13;;
11042;SDS011;5574;48.786;10.120;2024-01-11T12:55:31;23.97;;;17.27;;
11042;SDS011;5574;48.786;10.120;2024-01-11T12:58:04;28.03;;;18.67;;
11042;SDS011;5574;48.786;10.120;2024-01-11T13:00:35;24.60;;;15.43;;
11042;SDS011;5574;48.786;10.120;2024-01-11T13:03:02;25.93;;;17.67;;
11042;SDS011;5574;48.786;10.120;2024-01-11T13:05:30;23.03;;;16.57;;
11042;SDS011;5574;48.786;10.120;2024-01-11T13:07:59;28.27;;;20.90;;
11042;SDS011;5574;48.786;10.120;2024-01-11T13:10:27;27.93;;;21.20;;
11042;SDS011;5574;48.786;10.120;2024-01-11T13:12:54;29.17;;;20.53;;
11042;SDS011;5574;48.786;10.120;2024-01-11T13:15:23;27.07;;;20.23;;
11042;SDS011;5574;48.786;10.120;2024-01-11T13:17:49;26.47;;;20.10;;
11042;SDS011;5574;48.786;10.120;2024-01-11T13:20:16;25.60;;;20.07;;
11042;SDS011;5574;48.786;10.120;2024-01-11T13:22:42;26.40;;;19.13;;
11042;SDS011;5574;48.786;10.120;2024-01-11T13:25:09;28.77;;;21.07;;
11042;SDS011;5574;48.786;10.120;2024-01-11T13:27:36;29.40;;;20.20;;
11042;SDS011;5574;48.786;10.120;2024-01-11T13:30:03;29.13;;;18.83;;
11042;SDS011;5574;48.786;10.120;2024-01-11T13:32:32;27.60;;;19.50;;
11042;SDS011;5574;48.786;10.120;2024-01-11T13:34:58;26.80;;;20.40;;
11042;SDS011;5574;48.786;10.120;2024-01-11T13:37:25;25.90;;;20.20;;
11042;SDS011;5574;48.786;10.120;2024-01-11T13:39:52;29.50;;;20.40;;
11042;SDS011;5574;48.786;10.120;2024-01-11T13:42:18;30.17;;;20.23;;
11042;SDS011;5574;48.786;10.120;2024-01-11T13:44:45;27.90;;;20.13;;
11042;SDS011;5574;48.786;10.120;2024-01-11T13:47:11;25.87;;;20.60;;
11042;SDS011;5574;48.786;10.120;2024-01-11T13:49:40;28.13;;;20.90;;
11042;SDS011;5574;48.786;10.120;2024-01-11T13:52:07;28.30;;;19.53;;
11042;SDS011;5574;48.786;10.120;2024-01-11T13:54:33;29.07;;;20.37;;
11042;SDS011;5574;48.786;10.120;2024-01-11T13:57:00;27.63;;;19.60;;
11042;SDS011;5574;48.786;10.120;2024-01-11T13:59:27;26.27;;;18.73;;
11042;SDS011;5574;48.786;10.120;2024-01-11T14:01:54;25.80;;;19.10;;
11042;SDS011;5574;48.786;10.120;2024-01-11T14:04:21;26.60;;;19.97;;
11042;SDS011;5574;48.786;10.120;2024-01-11T14:06:49;29.23;;;21.17;;
11042;SDS011;5574;48.786;10.120;2024-01-11T14:09:17;28.17;;;20.33;;
11042;SDS011;5574;48.786;10.120;2024-01-11T14:11:44;28.73;;;18.70;;
11042;SDS011;5574;48.786;10.120;2024-01-11T14:14:13;27.13;;;19.30;;
11042;SDS011;5574;48.786;10.120;2024-01-11T14:16:40;26.33;;;19.03;;
11042;SDS011;5574;48.786;10.120;2024-01-11T14:19:06;27.20;;;18.93;;
11042;SDS011;5574;48.786;10.120;2024-01-11T14:21:33;24.87;;;19.47;;
11042;SDS011;5574;48.786;10.120;2024-01-11T14:24:03;24.73;;;18.43;;